sensor_id;sensor_type;location;lat;lon;timestamp;temperature;humidity
21891;DHT22;11110;52.386;16.940;2023-03-26T00:02:05;22.60;43.40
21891;DHT22;11110;52.386;16.940;2023-03-26T00:04:34;22.60;43.40
21891;DHT22;11110;52.386;16.940;2023-03-26T00:07:03;22.60;43.40
21891;DHT22;11110;52.386;16.940;2023-03-26T00:09:31;22.60;43.30
21891;DHT22;11110;52.386;16.940;2023-03-26T00:12:01;22.60;43.30
21891;DHT22;11110;52.386;16.940;2023-03-26T00:14:30;22.60;43.80
21891;DHT22;11110;52.386;16.940;2023-03-26T00:16:59;22.60;43.00
21891;DHT22;11110;52.386;16.940;2023-03-26T00:19:27;22.70;43.10
21891;DHT22;11110;52.386;16.940;2023-03-26T00:21:56;22.60;43.00
21891;DHT22;11110;52.386;16.940;2023-03-26T00:24:25;22.60;43.00
21891;DHT22;11110;52.386;16.940;2023-03-26T00:26:56;22.60;42.90
21891;DHT22;11110;52.386;16.940;2023-03-26T00:29:27;22.60;43.00
21891;DHT22;11110;52.386;16.940;2023-03-26T00:31:59;22.70;42.90
21891;DHT22;11110;52.386;16.940;2023-03-26T00:34:28;22.70;42.90
21891;DHT22;11110;52.386;16.940;2023-03-26T00:36:57;22.60;42.90
21891;DHT22;11110;52.386;16.940;2023-03-26T00:39:28;22.70;42.80
21891;DHT22;11110;52.386;16.940;2023-03-26T00:42:02;22.70;42.80
21891;DHT22;11110;52.386;16.940;2023-03-26T00:44:34;22.60;42.80
21891;DHT22;11110;52.386;16.940;2023-03-26T00:47:03;22.70;42.80
21891;DHT22;11110;52.386;16.940;2023-03-26T00:49:31;22.60;42.80
21891;DHT22;11110;52.386;16.940;2023-03-26T00:52:00;22.60;42.80
21891;DHT22;11110;52.386;16.940;2023-03-26T00:54:29;22.60;42.80
21891;DHT22;11110;52.386;16.940;2023-03-26T00:56:58;22.60;42.80
21891;DHT22;11110;52.386;16.940;2023-03-26T00:59:27;22.70;42.80
21891;DHT22;11110;52.386;16.940;2023-03-26T01:01:58;22.60;42.80
21891;DHT22;11110;52.386;16.940;2023-03-26T01:04:28;22.60;42.80
21891;DHT22;11110;52.386;16.940;2023-03-26T01:07:01;22.60;42.80
21891;DHT22;11110;52.386;16.940;2023-03-26T01:09:34;22.60;42.80
21891;DHT22;11110;52.386;16.940;2023-03-26T01:12:05;22.70;42.90
21891;DHT22;11110;52.386;16.940;2023-03-26T01:14:37;22.70;42.80
21891;DHT22;11110;52.386;16.940;2023-03-26T01:17:07;22.60;42.80
21891;DHT22;11110;52.386;16.940;2023-03-26T01:19:45;22.60;42.80
21891;DHT22;11110;52.386;16.940;2023-03-26T01:22:16;22.60;42.80
21891;DHT22;11110;52.386;16.940;2023-03-26T01:24:47;22.60;42.90
21891;DHT22;11110;52.386;16.940;2023-03-26T01:27:28;22.60;42.80
21891;DHT22;11110;52.386;16.940;2023-03-26T01:30:06;22.70;42.70
21891;DHT22;11110;52.386;16.940;2023-03-26T01:32:50;22.70;42.80
21891;DHT22;11110;52.386;16.940;2023-03-26T01:35:29;22.70;42.80
21891;DHT22;11110;52.386;16.940;2023-03-26T01:38:07;22.60;43.70
21891;DHT22;11110;52.386;16.940;2023-03-26T01:40:43;22.40;43.90
21891;DHT22;11110;52.386;16.940;2023-03-26T01:43:23;22.40;44.40
21891;DHT22;11110;52.386;16.940;2023-03-26T01:45:55;22.40;44.40
21891;DHT22;11110;52.386;16.940;2023-03-26T01:48:34;22.40;44.30
21891;DHT22;11110;52.386;16.940;2023-03-26T01:51:05;22.50;44.20
21891;DHT22;11110;52.386;16.940;2023-03-26T01:53:36;22.40;44.00
21891;DHT22;11110;52.386;16.940;2023-03-26T01:56:10;22.50;44.00
21891;DHT22;11110;52.386;16.940;2023-03-26T01:58:51;22.40;44.00
21891;DHT22;11110;52.386;16.940;2023-03-26T02:01:27;22.40;44.10
21891;DHT22;11110;52.386;16.940;2023-03-26T02:04:00;22.40;43.90
21891;DHT22;11110;52.386;16.940;2023-03-26T02:06:37;22.50;44.00
21891;DHT22;11110;52.386;16.940;2023-03-26T02:09:11;22.50;43.60
21891;DHT22;11110;52.386;16.940;2023-03-26T02:11:44;22.40;43.80
21891;DHT22;11110;52.386;16.940;2023-03-26T02:14:14;22.50;43.70
21891;DHT22;11110;52.386;16.940;2023-03-26T02:16:43;22.40;43.70
21891;DHT22;11110;52.386;16.940;2023-03-26T02:19:14;22.40;43.70
21891;DHT22;11110;52.386;16.940;2023-03-26T02:21:48;22.50;43.60
21891;DHT22;11110;52.386;16.940;2023-03-26T02:24:19;22.40;43.60
21891;DHT22;11110;52.386;16.940;2023-03-26T02:26:53;22.50;43.60
21891;DHT22;11110;52.386;16.940;2023-03-26T02:29:22;22.40;43.50
21891;DHT22;11110;52.386;16.940;2023-03-26T02:31:53;22.40;43.40
21891;DHT22;11110;52.386;16.940;2023-03-26T02:34:22;22.40;43.50
21891;DHT22;11110;52.386;16.940;2023-03-26T02:36:52;22.50;43.40
21891;DHT22;11110;52.386;16.940;2023-03-26T02:39:23;22.40;43.40
21891;DHT22;11110;52.386;16.940;2023-03-26T02:42:04;22.50;43.10
21891;DHT22;11110;52.386;16.940;2023-03-26T02:44:39;22.60;42.90
21891;DHT22;11110;52.386;16.940;2023-03-26T02:47:08;22.50;42.90
21891;DHT22;11110;52.386;16.940;2023-03-26T02:49:52;22.50;42.90
21891;DHT22;11110;52.386;16.940;2023-03-26T02:52:49;22.50;42.90
21891;DHT22;11110;52.386;16.940;2023-03-26T02:55:18;22.50;43.00
21891;DHT22;11110;52.386;16.940;2023-03-26T02:57:49;22.50;42.90
21891;DHT22;11110;52.386;16.940;2023-03-26T03:00:20;22.50;43.00
21891;DHT22;11110;52.386;16.940;2023-03-26T03:03:21;22.60;42.90
21891;DHT22;11110;52.386;16.940;2023-03-26T03:05:59;22.50;43.00
21891;DHT22;11110;52.386;16.940;2023-03-26T03:08:37;22.50;43.10
21891;DHT22;11110;52.386;16.940;2023-03-26T03:11:27;22.50;43.00
21891;DHT22;11110;52.386;16.940;2023-03-26T03:13:56;22.40;42.90
21891;DHT22;11110;52.386;16.940;2023-03-26T03:16:26;22.30;43.20
21891;DHT22;11110;52.386;16.940;2023-03-26T03:18:58;22.40;43.20
21891;DHT22;11110;52.386;16.940;2023-03-26T03:21:41;22.30;43.30
21891;DHT22;11110;52.386;16.940;2023-03-26T03:24:10;22.20;43.30
21891;DHT22;11110;52.386;16.940;2023-03-26T03:26:44;22.40;43.40
21891;DHT22;11110;52.386;16.940;2023-03-26T03:29:28;22.30;43.20
21891;DHT22;11110;52.386;16.940;2023-03-26T03:32:04;22.30;43.30
21891;DHT22;11110;52.386;16.940;2023-03-26T03:34:38;22.30;43.40
21891;DHT22;11110;52.386;16.940;2023-03-26T03:37:09;22.40;43.40
21891;DHT22;11110;52.386;16.940;2023-03-26T03:39:50;22.30;43.40
21891;DHT22;11110;52.386;16.940;2023-03-26T03:42:21;22.10;43.60
21891;DHT22;11110;52.386;16.940;2023-03-26T03:44:54;22.30;43.80
21891;DHT22;11110;52.386;16.940;2023-03-26T03:47:41;22.20;43.60
21891;DHT22;11110;52.386;16.940;2023-03-26T03:50:11;22.10;43.90
21891;DHT22;11110;52.386;16.940;2023-03-26T03:52:51;22.10;43.90
21891;DHT22;11110;52.386;16.940;2023-03-26T03:55:20;22.20;43.70
21891;DHT22;11110;52.386;16.940;2023-03-26T03:57:52;22.20;43.60
21891;DHT22;11110;52.386;16.940;2023-03-26T04:00:25;22.20;43.80
21891;DHT22;11110;52.386;16.940;2023-03-26T04:03:19;22.10;43.70
21891;DHT22;11110;52.386;16.940;2023-03-26T04:06:04;22.30;43.70
21891;DHT22;11110;52.386;16.940;2023-03-26T04:08:35;22.10;43.70
21891;DHT22;11110;52.386;16.940;2023-03-26T04:11:05;22.10;43.60
21891;DHT22;11110;52.386;16.940;2023-03-26T04:13:59;22.20;43.40
21891;DHT22;11110;52.386;16.940;2023-03-26T04:16:42;22.30;43.20
21891;DHT22;11110;52.386;16.940;2023-03-26T04:19:11;22.10;43.20
21891;DHT22;11110;52.386;16.940;2023-03-26T04:21:40;22.20;43.20
21891;DHT22;11110;52.386;16.940;2023-03-26T04:24:10;22.40;43.10
21891;DHT22;11110;52.386;16.940;2023-03-26T04:26:59;22.30;43.70
21891;DHT22;11110;52.386;16.940;2023-03-26T04:29:38;22.30;43.00
21891;DHT22;11110;52.386;16.940;2023-03-26T04:32:21;22.30;43.10
21891;DHT22;11110;52.386;16.940;2023-03-26T04:34:51;22.30;43.00
21891;DHT22;11110;52.386;16.940;2023-03-26T04:37:26;22.40;42.90
21891;DHT22;11110;52.386;16.940;2023-03-26T04:40:08;22.30;43.10
21891;DHT22;11110;52.386;16.940;2023-03-26T04:42:50;22.30;43.00
21891;DHT22;11110;52.386;16.940;2023-03-26T04:45:37;22.40;42.90
21891;DHT22;11110;52.386;16.940;2023-03-26T04:48:07;22.30;42.90
21891;DHT22;11110;52.386;16.940;2023-03-26T04:50:42;22.40;42.90
21891;DHT22;11110;52.386;16.940;2023-03-26T04:53:14;22.30;42.90
21891;DHT22;11110;52.386;16.940;2023-03-26T04:56:07;22.30;42.90
21891;DHT22;11110;52.386;16.940;2023-03-26T04:59:21;22.20;43.10
21891;DHT22;11110;52.386;16.940;2023-03-26T05:01:54;22.40;42.90
21891;DHT22;11110;52.386;16.940;2023-03-26T05:04:27;22.10;42.90
21891;DHT22;11110;52.386;16.940;2023-03-26T05:06:58;22.10;43.10
21891;DHT22;11110;52.386;16.940;2023-03-26T05:09:40;22.20;43.20
21891;DHT22;11110;52.386;16.940;2023-03-26T05:12:16;22.10;43.10
21891;DHT22;11110;52.386;16.940;2023-03-26T05:15:07;22.00;43.10
21891;DHT22;11110;52.386;16.940;2023-03-26T05:18:04;22.10;43.20
21891;DHT22;11110;52.386;16.940;2023-03-26T05:20:40;22.10;43.20
21891;DHT22;11110;52.386;16.940;2023-03-26T05:23:10;22.20;43.10
21891;DHT22;11110;52.386;16.940;2023-03-26T05:25:41;22.20;42.90
21891;DHT22;11110;52.386;16.940;2023-03-26T05:28:16;22.20;42.90
21891;DHT22;11110;52.386;16.940;2023-03-26T05:30:54;22.10;42.80
21891;DHT22;11110;52.386;16.940;2023-03-26T05:33:26;22.10;42.60
21891;DHT22;11110;52.386;16.940;2023-03-26T05:36:08;22.10;42.60
21891;DHT22;11110;52.386;16.940;2023-03-26T05:38:42;22.20;42.70
21891;DHT22;11110;52.386;16.940;2023-03-26T05:41:17;22.10;42.40
21891;DHT22;11110;52.386;16.940;2023-03-26T05:43:48;22.00;42.70
21891;DHT22;11110;52.386;16.940;2023-03-26T05:46:21;22.20;42.50
21891;DHT22;11110;52.386;16.940;2023-03-26T05:48:50;22.30;42.40
21891;DHT22;11110;52.386;16.940;2023-03-26T05:51:22;22.10;42.40
21891;DHT22;11110;52.386;16.940;2023-03-26T05:54:10;22.00;42.50
21891;DHT22;11110;52.386;16.940;2023-03-26T05:56:57;22.00;42.60
21891;DHT22;11110;52.386;16.940;2023-03-26T05:59:45;22.00;42.90
21891;DHT22;11110;52.386;16.940;2023-03-26T06:02:46;22.00;42.80
21891;DHT22;11110;52.386;16.940;2023-03-26T06:05:38;22.00;43.00
21891;DHT22;11110;52.386;16.940;2023-03-26T06:08:13;21.90;42.80
21891;DHT22;11110;52.386;16.940;2023-03-26T06:10:49;22.10;42.80
21891;DHT22;11110;52.386;16.940;2023-03-26T06:13:17;21.90;42.90
21891;DHT22;11110;52.386;16.940;2023-03-26T06:15:49;21.90;42.80
21891;DHT22;11110;52.386;16.940;2023-03-26T06:18:29;21.90;42.90
21891;DHT22;11110;52.386;16.940;2023-03-26T06:21:17;21.80;42.90
21891;DHT22;11110;52.386;16.940;2023-03-26T06:23:54;21.70;43.10
21891;DHT22;11110;52.386;16.940;2023-03-26T06:26:59;21.90;43.20
21891;DHT22;11110;52.386;16.940;2023-03-26T06:29:46;21.90;43.00
21891;DHT22;11110;52.386;16.940;2023-03-26T06:32:35;22.00;42.90
21891;DHT22;11110;52.386;16.940;2023-03-26T06:35:10;21.90;43.70
21891;DHT22;11110;52.386;16.940;2023-03-26T06:37:40;21.90;43.10
21891;DHT22;11110;52.386;16.940;2023-03-26T06:40:10;21.90;43.20
21891;DHT22;11110;52.386;16.940;2023-03-26T06:43:02;21.90;43.10
21891;DHT22;11110;52.386;16.940;2023-03-26T06:45:55;21.80;43.10
21891;DHT22;11110;52.386;16.940;2023-03-26T06:48:42;21.80;43.80
21891;DHT22;11110;52.386;16.940;2023-03-26T06:51:49;21.90;43.20
21891;DHT22;11110;52.386;16.940;2023-03-26T06:54:37;21.80;43.30
21891;DHT22;11110;52.386;16.940;2023-03-26T06:57:25;21.80;43.20
21891;DHT22;11110;52.386;16.940;2023-03-26T07:00:26;21.90;43.50
21891;DHT22;11110;52.386;16.940;2023-03-26T07:03:13;22.00;42.90
21891;DHT22;11110;52.386;16.940;2023-03-26T07:06:07;22.10;43.80
21891;DHT22;11110;52.386;16.940;2023-03-26T07:08:53;22.00;43.00
21891;DHT22;11110;52.386;16.940;2023-03-26T07:11:42;22.00;42.70
21891;DHT22;11110;52.386;16.940;2023-03-26T07:14:15;22.00;42.60
21891;DHT22;11110;52.386;16.940;2023-03-26T07:17:03;22.10;42.70
21891;DHT22;11110;52.386;16.940;2023-03-26T07:19:37;22.00;43.00
21891;DHT22;11110;52.386;16.940;2023-03-26T07:22:06;21.80;42.90
21891;DHT22;11110;52.386;16.940;2023-03-26T07:24:54;22.10;43.00
21891;DHT22;11110;52.386;16.940;2023-03-26T07:27:45;21.90;42.90
21891;DHT22;11110;52.386;16.940;2023-03-26T07:30:32;22.00;43.10
21891;DHT22;11110;52.386;16.940;2023-03-26T07:33:37;22.20;42.80
21891;DHT22;11110;52.386;16.940;2023-03-26T07:36:32;22.10;42.80
21891;DHT22;11110;52.386;16.940;2023-03-26T07:39:41;22.20;43.00
21891;DHT22;11110;52.386;16.940;2023-03-26T07:42:42;22.30;42.90
21891;DHT22;11110;52.386;16.940;2023-03-26T07:45:47;22.30;42.50
21891;DHT22;11110;52.386;16.940;2023-03-26T07:48:20;22.20;42.60
21891;DHT22;11110;52.386;16.940;2023-03-26T07:51:08;22.20;42.50
21891;DHT22;11110;52.386;16.940;2023-03-26T07:54:04;22.00;42.70
21891;DHT22;11110;52.386;16.940;2023-03-26T07:56:58;22.30;42.60
21891;DHT22;11110;52.386;16.940;2023-03-26T07:59:34;22.10;42.50
21891;DHT22;11110;52.386;16.940;2023-03-26T08:02:38;22.00;42.70
21891;DHT22;11110;52.386;16.940;2023-03-26T08:05:26;22.20;42.00
21891;DHT22;11110;52.386;16.940;2023-03-26T08:08:11;22.40;41.20
21891;DHT22;11110;52.386;16.940;2023-03-26T08:11:07;22.40;41.20
21891;DHT22;11110;52.386;16.940;2023-03-26T08:13:55;22.50;41.40
21891;DHT22;11110;52.386;16.940;2023-03-26T08:16:29;22.20;41.60
21891;DHT22;11110;52.386;16.940;2023-03-26T08:19:07;22.50;41.50
21891;DHT22;11110;52.386;16.940;2023-03-26T08:21:43;22.40;41.60
21891;DHT22;11110;52.386;16.940;2023-03-26T08:24:19;22.50;41.70
21891;DHT22;11110;52.386;16.940;2023-03-26T08:26:54;22.50;41.80
21891;DHT22;11110;52.386;16.940;2023-03-26T08:29:30;22.40;41.90
21891;DHT22;11110;52.386;16.940;2023-03-26T08:32:02;22.40;42.10
21891;DHT22;11110;52.386;16.940;2023-03-26T08:34:32;22.50;41.70
21891;DHT22;11110;52.386;16.940;2023-03-26T08:37:01;22.60;41.60
21891;DHT22;11110;52.386;16.940;2023-03-26T08:39:30;22.70;41.10
21891;DHT22;11110;52.386;16.940;2023-03-26T08:45:25;22.40;41.40
21891;DHT22;11110;52.386;16.940;2023-03-26T08:48:22;22.40;42.00
21891;DHT22;11110;52.386;16.940;2023-03-26T08:51:37;22.70;41.60
21891;DHT22;11110;52.386;16.940;2023-03-26T08:54:39;22.80;41.00
21891;DHT22;11110;52.386;16.940;2023-03-26T09:00:36;22.90;41.20
21891;DHT22;11110;52.386;16.940;2023-03-26T09:03:20;22.80;40.90
21891;DHT22;11110;52.386;16.940;2023-03-26T09:06:25;22.90;40.80
21891;DHT22;11110;52.386;16.940;2023-03-26T09:25:24;22.90;39.40
21891;DHT22;11110;52.386;16.940;2023-03-26T09:28:31;22.90;39.60
21891;DHT22;11110;52.386;16.940;2023-03-26T09:31:19;23.00;39.30
21891;DHT22;11110;52.386;16.940;2023-03-26T09:34:10;23.10;38.90
21891;DHT22;11110;52.386;16.940;2023-03-26T09:37:13;23.30;38.60
21891;DHT22;11110;52.386;16.940;2023-03-26T09:39:56;23.30;38.60
21891;DHT22;11110;52.386;16.940;2023-03-26T09:42:36;23.30;38.20
21891;DHT22;11110;52.386;16.940;2023-03-26T09:48:28;23.30;39.00
21891;DHT22;11110;52.386;16.940;2023-03-26T09:51:23;23.20;39.00
21891;DHT22;11110;52.386;16.940;2023-03-26T09:54:16;23.30;38.50
21891;DHT22;11110;52.386;16.940;2023-03-26T09:56:53;23.30;38.50
21891;DHT22;11110;52.386;16.940;2023-03-26T10:02:41;23.40;38.20
21891;DHT22;11110;52.386;16.940;2023-03-26T10:05:28;23.50;38.30
21891;DHT22;11110;52.386;16.940;2023-03-26T10:08:09;23.50;39.30
21891;DHT22;11110;52.386;16.940;2023-03-26T10:10:47;23.30;38.90
21891;DHT22;11110;52.386;16.940;2023-03-26T10:13:27;23.40;39.10
21891;DHT22;11110;52.386;16.940;2023-03-26T10:16:07;23.30;39.10
21891;DHT22;11110;52.386;16.940;2023-03-26T10:18:50;23.50;39.60
21891;DHT22;11110;52.386;16.940;2023-03-26T10:21:28;23.50;39.70
21891;DHT22;11110;52.386;16.940;2023-03-26T10:24:21;23.50;40.00
21891;DHT22;11110;52.386;16.940;2023-03-26T10:27:09;23.60;39.30
21891;DHT22;11110;52.386;16.940;2023-03-26T10:29:58;23.40;40.60
21891;DHT22;11110;52.386;16.940;2023-03-26T10:32:32;23.20;41.50
21891;DHT22;11110;52.386;16.940;2023-03-26T10:35:14;23.00;41.60
21891;DHT22;11110;52.386;16.940;2023-03-26T10:38:07;23.10;42.10
21891;DHT22;11110;52.386;16.940;2023-03-26T10:40:50;23.20;42.30
21891;DHT22;11110;52.386;16.940;2023-03-26T10:43:35;23.10;42.20
21891;DHT22;11110;52.386;16.940;2023-03-26T10:46:23;23.30;42.50
21891;DHT22;11110;52.386;16.940;2023-03-26T10:49:17;23.30;42.40
21891;DHT22;11110;52.386;16.940;2023-03-26T10:51:49;23.30;42.30
21891;DHT22;11110;52.386;16.940;2023-03-26T10:54:28;23.50;42.00
21891;DHT22;11110;52.386;16.940;2023-03-26T10:57:05;23.40;41.50
21891;DHT22;11110;52.386;16.940;2023-03-26T10:59:36;23.30;41.60
21891;DHT22;11110;52.386;16.940;2023-03-26T11:02:23;23.30;41.40
21891;DHT22;11110;52.386;16.940;2023-03-26T11:05:13;23.40;41.50
21891;DHT22;11110;52.386;16.940;2023-03-26T11:07:48;23.50;41.10
21891;DHT22;11110;52.386;16.940;2023-03-26T11:10:25;23.50;41.20
21891;DHT22;11110;52.386;16.940;2023-03-26T11:12:59;23.70;40.80
21891;DHT22;11110;52.386;16.940;2023-03-26T11:15:36;23.60;38.90
21891;DHT22;11110;52.386;16.940;2023-03-26T11:18:12;23.70;37.80
21891;DHT22;11110;52.386;16.940;2023-03-26T11:20:47;23.60;38.70
21891;DHT22;11110;52.386;16.940;2023-03-26T11:23:27;23.60;39.30
21891;DHT22;11110;52.386;16.940;2023-03-26T11:26:05;23.80;38.50
21891;DHT22;11110;52.386;16.940;2023-03-26T11:28:49;23.90;38.60
21891;DHT22;11110;52.386;16.940;2023-03-26T11:31:51;23.90;38.00
21891;DHT22;11110;52.386;16.940;2023-03-26T11:34:27;24.10;37.70
21891;DHT22;11110;52.386;16.940;2023-03-26T11:37:00;24.10;37.50
21891;DHT22;11110;52.386;16.940;2023-03-26T11:39:39;23.90;37.60
21891;DHT22;11110;52.386;16.940;2023-03-26T11:42:12;23.90;37.80
21891;DHT22;11110;52.386;16.940;2023-03-26T11:44:47;23.90;37.80
21891;DHT22;11110;52.386;16.940;2023-03-26T11:47:22;24.00;37.60
21891;DHT22;11110;52.386;16.940;2023-03-26T11:49:54;24.10;36.80
21891;DHT22;11110;52.386;16.940;2023-03-26T11:52:26;24.30;37.30
21891;DHT22;11110;52.386;16.940;2023-03-26T11:54:55;24.10;37.30
21891;DHT22;11110;52.386;16.940;2023-03-26T11:57:28;24.10;38.10
21891;DHT22;11110;52.386;16.940;2023-03-26T12:00:02;24.10;38.40
21891;DHT22;11110;52.386;16.940;2023-03-26T12:02:45;24.20;38.30
21891;DHT22;11110;52.386;16.940;2023-03-26T12:05:17;24.10;38.40
21891;DHT22;11110;52.386;16.940;2023-03-26T12:07:51;24.20;38.40
21891;DHT22;11110;52.386;16.940;2023-03-26T12:10:27;24.20;38.20
21891;DHT22;11110;52.386;16.940;2023-03-26T12:12:58;24.30;38.20
21891;DHT22;11110;52.386;16.940;2023-03-26T12:15:29;24.30;38.20
21891;DHT22;11110;52.386;16.940;2023-03-26T12:18:19;24.20;38.40
21891;DHT22;11110;52.386;16.940;2023-03-26T12:21:02;24.10;39.20
21891;DHT22;11110;52.386;16.940;2023-03-26T12:26:35;24.20;39.60
21891;DHT22;11110;52.386;16.940;2023-03-26T12:29:07;24.20;39.60
21891;DHT22;11110;52.386;16.940;2023-03-26T12:31:50;24.00;39.60
21891;DHT22;11110;52.386;16.940;2023-03-26T12:34:22;24.00;39.10
21891;DHT22;11110;52.386;16.940;2023-03-26T12:36:52;24.00;39.50
21891;DHT22;11110;52.386;16.940;2023-03-26T12:39:36;23.90;39.60
21891;DHT22;11110;52.386;16.940;2023-03-26T12:42:27;23.90;39.80
21891;DHT22;11110;52.386;16.940;2023-03-26T12:45:19;23.70;40.60
21891;DHT22;11110;52.386;16.940;2023-03-26T12:47:52;23.70;40.30
21891;DHT22;11110;52.386;16.940;2023-03-26T12:50:42;23.70;40.50
21891;DHT22;11110;52.386;16.940;2023-03-26T12:53:34;23.70;40.00
21891;DHT22;11110;52.386;16.940;2023-03-26T12:56:11;23.70;40.60
21891;DHT22;11110;52.386;16.940;2023-03-26T12:59:01;23.70;40.40
21891;DHT22;11110;52.386;16.940;2023-03-26T13:01:45;23.90;39.50
21891;DHT22;11110;52.386;16.940;2023-03-26T13:04:38;23.80;39.70
21891;DHT22;11110;52.386;16.940;2023-03-26T13:07:24;23.90;39.70
21891;DHT22;11110;52.386;16.940;2023-03-26T13:10:26;24.10;39.90
21891;DHT22;11110;52.386;16.940;2023-03-26T13:13:08;24.20;39.70
21891;DHT22;11110;52.386;16.940;2023-03-26T13:15:43;24.30;39.30
21891;DHT22;11110;52.386;16.940;2023-03-26T13:18:24;24.50;38.80
21891;DHT22;11110;52.386;16.940;2023-03-26T13:20:59;24.50;38.80
21891;DHT22;11110;52.386;16.940;2023-03-26T13:23:41;24.50;38.20
21891;DHT22;11110;52.386;16.940;2023-03-26T13:26:21;24.60;38.20
21891;DHT22;11110;52.386;16.940;2023-03-26T13:29:00;24.80;37.80
21891;DHT22;11110;52.386;16.940;2023-03-26T13:31:37;24.90;36.80
21891;DHT22;11110;52.386;16.940;2023-03-26T13:34:15;24.70;37.20
21891;DHT22;11110;52.386;16.940;2023-03-26T13:36:56;24.80;37.00
21891;DHT22;11110;52.386;16.940;2023-03-26T13:39:36;24.80;36.80
21891;DHT22;11110;52.386;16.940;2023-03-26T13:42:24;24.90;36.30
21891;DHT22;11110;52.386;16.940;2023-03-26T13:45:03;25.00;36.30
21891;DHT22;11110;52.386;16.940;2023-03-26T13:47:38;24.80;37.20
21891;DHT22;11110;52.386;16.940;2023-03-26T13:50:19;24.80;36.60
21891;DHT22;11110;52.386;16.940;2023-03-26T13:52:52;24.90;36.00
21891;DHT22;11110;52.386;16.940;2023-03-26T13:55:27;24.80;36.10
21891;DHT22;11110;52.386;16.940;2023-03-26T13:58:02;24.90;35.70
21891;DHT22;11110;52.386;16.940;2023-03-26T14:00:47;24.70;35.20
21891;DHT22;11110;52.386;16.940;2023-03-26T14:03:26;24.50;34.30
21891;DHT22;11110;52.386;16.940;2023-03-26T14:06:00;24.40;34.20
21891;DHT22;11110;52.386;16.940;2023-03-26T14:08:38;24.40;34.40
21891;DHT22;11110;52.386;16.940;2023-03-26T14:11:13;24.40;34.50
21891;DHT22;11110;52.386;16.940;2023-03-26T14:13:46;24.50;34.50
21891;DHT22;11110;52.386;16.940;2023-03-26T14:16:19;24.30;34.70
21891;DHT22;11110;52.386;16.940;2023-03-26T14:18:55;24.30;34.90
21891;DHT22;11110;52.386;16.940;2023-03-26T14:21:39;24.40;34.90
21891;DHT22;11110;52.386;16.940;2023-03-26T14:24:30;24.40;34.60
21891;DHT22;11110;52.386;16.940;2023-03-26T14:27:26;24.20;34.70
21891;DHT22;11110;52.386;16.940;2023-03-26T14:30:27;24.40;34.80
21891;DHT22;11110;52.386;16.940;2023-03-26T14:33:10;24.30;35.10
21891;DHT22;11110;52.386;16.940;2023-03-26T14:35:43;24.20;35.00
21891;DHT22;11110;52.386;16.940;2023-03-26T14:38:31;24.40;35.00
21891;DHT22;11110;52.386;16.940;2023-03-26T14:41:18;24.40;34.70
21891;DHT22;11110;52.386;16.940;2023-03-26T14:47:13;24.40;33.70
21891;DHT22;11110;52.386;16.940;2023-03-26T14:52:46;24.40;33.20
21891;DHT22;11110;52.386;16.940;2023-03-26T14:55:33;24.20;33.30
21891;DHT22;11110;52.386;16.940;2023-03-26T15:01:22;24.50;33.80
21891;DHT22;11110;52.386;16.940;2023-03-26T15:07:25;24.50;33.60
21891;DHT22;11110;52.386;16.940;2023-03-26T15:16:23;24.20;34.40
21891;DHT22;11110;52.386;16.940;2023-03-26T15:19:21;24.20;34.50
21891;DHT22;11110;52.386;16.940;2023-03-26T15:22:22;24.30;34.40
21891;DHT22;11110;52.386;16.940;2023-03-26T15:31:34;24.30;34.50
21891;DHT22;11110;52.386;16.940;2023-03-26T15:34:42;24.30;34.70
21891;DHT22;11110;52.386;16.940;2023-03-26T15:40:33;24.20;33.40
21891;DHT22;11110;52.386;16.940;2023-03-26T15:43:09;24.20;33.60
21891;DHT22;11110;52.386;16.940;2023-03-26T15:45:40;24.20;33.60
21891;DHT22;11110;52.386;16.940;2023-03-26T15:48:35;24.10;33.50
21891;DHT22;11110;52.386;16.940;2023-03-26T15:51:26;24.10;33.30
21891;DHT22;11110;52.386;16.940;2023-03-26T15:54:21;24.20;33.10
21891;DHT22;11110;52.386;16.940;2023-03-26T15:57:02;24.10;33.40
21891;DHT22;11110;52.386;16.940;2023-03-26T15:59:41;24.20;33.20
21891;DHT22;11110;52.386;16.940;2023-03-26T16:02:23;24.10;33.20
21891;DHT22;11110;52.386;16.940;2023-03-26T16:04:55;24.00;33.40
21891;DHT22;11110;52.386;16.940;2023-03-26T16:07:50;24.10;33.50
21891;DHT22;11110;52.386;16.940;2023-03-26T16:10:26;24.00;33.40
21891;DHT22;11110;52.386;16.940;2023-03-26T16:13:26;23.90;33.70
21891;DHT22;11110;52.386;16.940;2023-03-26T16:16:20;24.00;33.60
21891;DHT22;11110;52.386;16.940;2023-03-26T16:18:54;23.90;33.90
21891;DHT22;11110;52.386;16.940;2023-03-26T16:21:37;23.90;33.90
21891;DHT22;11110;52.386;16.940;2023-03-26T16:24:24;23.90;34.20
21891;DHT22;11110;52.386;16.940;2023-03-26T16:30:26;23.90;34.40
21891;DHT22;11110;52.386;16.940;2023-03-26T16:33:07;23.70;34.80
21891;DHT22;11110;52.386;16.940;2023-03-26T16:38:49;23.70;35.20
21891;DHT22;11110;52.386;16.940;2023-03-26T16:41:25;23.70;35.20
21891;DHT22;11110;52.386;16.940;2023-03-26T16:44:08;23.80;35.20
21891;DHT22;11110;52.386;16.940;2023-03-26T16:46:47;23.90;34.90
21891;DHT22;11110;52.386;16.940;2023-03-26T16:49:25;23.90;34.60
21891;DHT22;11110;52.386;16.940;2023-03-26T16:52:14;23.90;34.40
21891;DHT22;11110;52.386;16.940;2023-03-26T16:54:53;23.90;34.30
21891;DHT22;11110;52.386;16.940;2023-03-26T16:57:28;23.70;34.40
21891;DHT22;11110;52.386;16.940;2023-03-26T17:00:19;23.80;34.30
21891;DHT22;11110;52.386;16.940;2023-03-26T17:02:56;23.80;34.30
21891;DHT22;11110;52.386;16.940;2023-03-26T17:05:35;23.90;34.20
21891;DHT22;11110;52.386;16.940;2023-03-26T17:08:11;23.80;34.40
21891;DHT22;11110;52.386;16.940;2023-03-26T17:10:54;23.90;34.30
21891;DHT22;11110;52.386;16.940;2023-03-26T17:13:29;23.80;34.20
21891;DHT22;11110;52.386;16.940;2023-03-26T17:16:09;23.80;34.30
21891;DHT22;11110;52.386;16.940;2023-03-26T17:18:44;23.80;34.40
21891;DHT22;11110;52.386;16.940;2023-03-26T17:21:17;23.70;34.50
21891;DHT22;11110;52.386;16.940;2023-03-26T17:24:02;23.70;34.70
21891;DHT22;11110;52.386;16.940;2023-03-26T17:26:48;23.70;34.60
21891;DHT22;11110;52.386;16.940;2023-03-26T17:29:30;23.70;34.80
21891;DHT22;11110;52.386;16.940;2023-03-26T17:32:08;23.70;34.90
21891;DHT22;11110;52.386;16.940;2023-03-26T17:34:53;23.60;34.90
21891;DHT22;11110;52.386;16.940;2023-03-26T17:37:41;23.70;35.00
21891;DHT22;11110;52.386;16.940;2023-03-26T17:40:47;23.60;35.10
21891;DHT22;11110;52.386;16.940;2023-03-26T17:43:41;23.60;35.20